Country
Station

 

Weather  for  New Orleans, Naval Air Station  -  United States    United States

  
13 °C (55 °F)
    
 
 

Current METAR for New Orleans, Naval Air Station is :

KNBG 111855Z 00000KT 10SM SCT250 13/01 A3038 RMK AO2 SLP286 T01330011 $

 

This is a report for New Orleans, Naval Air Station - United States.
 
The report was made 32 minutes ago, at 18:55 UTC .
The wind was calm.
 
The temperature was 13 °C (55 °F), with a dew-point at 1 °C (34 °F).
The atmospheric pressure was 1029 hPa (30.38 inHg).
The relative humidity was 43.8%.
 
There were scattered clouds at a height of 7620 meters (25000 feet).
 
The overall visibility was 16.1 kilometers (10.0 miles).
 

 
 
 
 

Country :   A   B   C   D   E   F   G   H   I   J   K   L   M   N   O   P   Q   R   S   T   U   V   W   Y   Z

 

Site Info  |  Disclaimer  |  Credits  |  Privacy
Contact us  |  Add to favorites
© 2013-2018 METARs - All rights reserved